createdAt,value
2023-02-18T00:00:09.263Z,35.26
2023-02-18T00:02:35.605Z,35.21
2023-02-18T00:05:01.989Z,34.87
2023-02-18T00:07:28.293Z,35.12
2023-02-18T00:09:54.604Z,34.92
2023-02-18T00:12:20.935Z,35.13
2023-02-18T00:14:47.251Z,34.98
2023-02-18T00:17:13.557Z,34.80
2023-02-18T00:19:40.131Z,35.03
2023-02-18T00:22:06.443Z,34.88
2023-02-18T00:24:32.758Z,34.77
2023-02-18T00:26:59.305Z,34.86
2023-02-18T00:29:25.650Z,35.25
2023-02-18T00:31:52.022Z,35.37
2023-02-18T00:34:18.440Z,35.38
2023-02-18T00:36:44.755Z,35.50
2023-02-18T00:39:11.140Z,35.11
2023-02-18T00:41:37.511Z,35.19
2023-02-18T00:44:03.997Z,35.47
2023-02-18T00:46:30.361Z,35.46
2023-02-18T00:48:56.740Z,34.71
2023-02-18T00:51:23.206Z,35.22
2023-02-18T00:53:49.629Z,35.17
2023-02-18T00:56:15.956Z,35.21
2023-02-18T00:58:42.261Z,35.45
2023-02-18T01:01:08.706Z,35.30
2023-02-18T01:03:35.750Z,35.37
2023-02-18T01:06:02.091Z,35.45
2023-02-18T01:08:28.402Z,35.63
2023-02-18T01:10:55.116Z,35.58
2023-02-18T01:13:21.556Z,35.46
2023-02-18T01:15:48.104Z,35.65
2023-02-18T01:18:14.442Z,35.76
2023-02-18T01:20:41.294Z,35.75
2023-02-18T01:23:07.843Z,35.73
2023-02-18T01:25:35.740Z,35.58
2023-02-18T01:28:02.333Z,35.71
2023-02-18T01:30:28.684Z,35.71
2023-02-18T01:32:55.735Z,35.71
2023-02-18T01:35:22.176Z,35.64
2023-02-18T01:37:48.774Z,35.85
2023-02-18T01:40:16.102Z,35.64
2023-02-18T01:42:42.402Z,35.51
2023-02-18T01:45:27.369Z,35.52
2023-02-18T01:47:53.675Z,35.45
2023-02-18T01:50:19.984Z,35.64
2023-02-18T01:52:46.299Z,35.80
2023-02-18T01:55:12.612Z,35.74
2023-02-18T01:57:38.939Z,35.76
2023-02-18T02:00:06.544Z,35.72
2023-02-18T02:02:32.912Z,35.75
2023-02-18T02:04:59.482Z,35.75
2023-02-18T02:07:25.986Z,35.80
2023-02-18T02:09:52.882Z,35.88
2023-02-18T02:12:21.894Z,35.73
2023-02-18T02:14:53.409Z,35.68
2023-02-18T02:17:19.647Z,35.68
2023-02-18T02:19:58.019Z,35.94
2023-02-18T02:22:43.279Z,35.81
2023-02-18T02:25:15.986Z,35.76
2023-02-18T02:27:54.196Z,35.52
2023-02-18T02:30:40.771Z,35.62
2023-02-18T02:33:25.974Z,35.61
2023-02-18T02:36:10.932Z,35.64
2023-02-18T02:38:50.273Z,35.78
2023-02-18T02:41:35.304Z,35.71
2023-02-18T02:44:16.727Z,35.77
2023-02-18T02:46:47.336Z,35.74
2023-02-18T02:49:28.892Z,35.78
2023-02-18T02:52:14.885Z,35.70
2023-02-18T02:54:41.235Z,35.88
2023-02-18T02:57:13.293Z,35.78
2023-02-18T02:59:40.556Z,35.84
2023-02-18T03:02:19.153Z,35.72
2023-02-18T03:04:59.691Z,35.85
2023-02-18T03:07:25.940Z,35.85
2023-02-18T03:09:59.906Z,35.80
2023-02-18T03:12:29.920Z,35.87
2023-02-18T03:15:02.820Z,35.89
2023-02-18T03:17:36.116Z,35.84
2023-02-18T03:20:10.021Z,35.90
2023-02-18T03:22:38.309Z,35.85
2023-02-18T03:25:05.082Z,35.92
2023-02-18T03:27:57.721Z,35.76
2023-02-18T03:30:33.675Z,35.79
2023-02-18T03:33:00.899Z,35.68
2023-02-18T03:35:27.260Z,35.67
2023-02-18T03:38:04.398Z,35.68
2023-02-18T03:40:30.710Z,35.82
2023-02-18T03:42:57.611Z,35.54
2023-02-18T03:45:24.099Z,35.72
2023-02-18T03:47:50.669Z,35.46
2023-02-18T03:50:17.062Z,35.87
2023-02-18T03:52:43.388Z,35.90
2023-02-18T03:55:09.735Z,35.82
2023-02-18T03:57:36.111Z,35.89
2023-02-18T04:00:02.433Z,35.89
2023-02-18T04:02:28.780Z,35.89
2023-02-18T04:04:55.094Z,35.87
2023-02-18T04:07:21.443Z,35.91
2023-02-18T04:09:47.756Z,35.74
2023-02-18T04:12:14.087Z,35.84
2023-02-18T04:14:40.627Z,35.91
2023-02-18T04:17:07.009Z,35.88
2023-02-18T04:19:33.324Z,35.91
2023-02-18T04:21:59.652Z,35.91
2023-02-18T04:24:25.958Z,35.92
2023-02-18T04:26:52.279Z,35.84
2023-02-18T04:29:18.589Z,36.03
2023-02-18T04:31:44.999Z,35.92
2023-02-18T04:34:11.343Z,35.80
2023-02-18T04:36:37.676Z,35.71
2023-02-18T04:39:03.997Z,35.72
2023-02-18T04:41:30.318Z,35.76
2023-02-18T04:43:56.680Z,35.66
2023-02-18T04:46:23.061Z,35.73
2023-02-18T04:48:49.431Z,35.75
2023-02-18T04:51:15.746Z,35.81
2023-02-18T04:53:42.072Z,35.91
2023-02-18T04:56:08.803Z,35.88
2023-02-18T04:58:35.244Z,35.75
2023-02-18T05:01:02.075Z,35.97
2023-02-18T05:03:28.686Z,35.81
2023-02-18T05:05:55.001Z,35.86
2023-02-18T05:08:21.334Z,35.82
2023-02-18T05:10:47.656Z,35.90
2023-02-18T05:13:14.307Z,35.99
2023-02-18T05:15:40.663Z,35.84
2023-02-18T05:18:07.776Z,35.89
2023-02-18T05:20:34.099Z,35.98
2023-02-18T05:23:00.441Z,35.92
2023-02-18T05:25:26.995Z,35.82
2023-02-18T05:27:53.316Z,35.73
2023-02-18T05:30:19.706Z,35.93
2023-02-18T05:32:46.062Z,35.84
2023-02-18T05:35:13.588Z,35.82
2023-02-18T05:37:39.927Z,35.85
2023-02-18T05:40:06.489Z,35.91
2023-02-18T05:42:33.031Z,35.80
2023-02-18T05:44:59.352Z,35.97
2023-02-18T05:47:25.677Z,35.88
2023-02-18T05:49:52.001Z,35.75
2023-02-18T05:52:18.358Z,35.83
2023-02-18T05:54:44.848Z,35.99
2023-02-18T05:57:11.326Z,36.02
2023-02-18T05:59:37.630Z,35.88
2023-02-18T06:02:03.975Z,35.99
2023-02-18T06:04:30.301Z,35.84
2023-02-18T06:06:56.655Z,35.62
2023-02-18T06:09:22.971Z,35.41
2023-02-18T06:11:49.277Z,35.29
2023-02-18T06:14:15.632Z,35.29
2023-02-18T06:16:41.954Z,35.21
2023-02-18T06:19:08.316Z,34.92
2023-02-18T06:21:34.628Z,34.86
2023-02-18T06:24:00.935Z,34.98
2023-02-18T06:26:27.251Z,34.87
2023-02-18T06:28:53.567Z,34.93
2023-02-18T06:31:19.938Z,34.91
2023-02-18T06:33:46.324Z,34.96
2023-02-18T06:36:12.724Z,35.04
2023-02-18T06:38:39.751Z,35.05
2023-02-18T06:41:06.351Z,34.89
2023-02-18T06:43:32.674Z,34.88
2023-02-18T06:45:59.000Z,34.87
2023-02-18T06:48:25.330Z,34.82
2023-02-18T06:50:51.656Z,34.87
2023-02-18T06:53:18.092Z,34.91
2023-02-18T06:55:44.821Z,34.91
2023-02-18T06:58:11.168Z,34.97
2023-02-18T07:00:37.575Z,34.87
2023-02-18T07:03:04.094Z,34.91
2023-02-18T07:05:30.409Z,35.07
2023-02-18T07:07:56.747Z,35.03
2023-02-18T07:10:23.116Z,34.98
2023-02-18T07:12:49.438Z,35.07
2023-02-18T07:15:15.738Z,35.14
2023-02-18T07:17:42.061Z,34.87
2023-02-18T07:20:08.617Z,34.95
2023-02-18T07:22:34.943Z,34.94
2023-02-18T07:25:01.521Z,34.82
2023-02-18T07:27:27.894Z,34.80
2023-02-18T07:29:54.266Z,34.85
2023-02-18T07:32:20.613Z,34.94
2023-02-18T07:34:46.929Z,34.82
2023-02-18T07:37:13.245Z,35.02
2023-02-18T07:39:40.032Z,34.93
2023-02-18T07:42:06.355Z,35.03
2023-02-18T07:44:32.668Z,35.11
2023-02-18T07:46:59.721Z,35.11
2023-02-18T07:49:26.076Z,34.90
2023-02-18T07:51:52.380Z,34.90
2023-02-18T07:54:18.926Z,34.61
2023-02-18T07:56:45.414Z,34.73
2023-02-18T07:59:11.933Z,34.71
2023-02-18T08:01:38.341Z,34.88
2023-02-18T08:04:04.707Z,34.68
2023-02-18T08:06:31.797Z,34.82
2023-02-18T08:08:58.122Z,34.87
2023-02-18T08:11:24.484Z,34.95
2023-02-18T08:13:50.818Z,34.95
2023-02-18T08:16:17.487Z,34.73
2023-02-18T08:18:43.857Z,34.67
2023-02-18T08:21:10.176Z,34.73
2023-02-18T08:23:36.494Z,34.43
2023-02-18T08:26:02.801Z,34.44
2023-02-18T08:28:29.129Z,34.31
2023-02-18T08:30:55.480Z,34.35
2023-02-18T08:33:22.069Z,34.15
2023-02-18T08:35:48.491Z,34.44
2023-02-18T08:38:14.852Z,34.39
2023-02-18T08:40:41.574Z,34.48
2023-02-18T08:43:07.948Z,34.61
2023-02-18T08:45:36.047Z,34.66
2023-02-18T08:48:18.862Z,34.51
2023-02-18T08:50:47.120Z,34.90
2023-02-18T08:53:13.456Z,35.15
2023-02-18T08:55:40.246Z,35.13
2023-02-18T08:58:06.810Z,34.93
2023-02-18T09:00:33.189Z,34.94
2023-02-18T09:03:00.013Z,34.89
2023-02-18T09:05:26.344Z,35.09
2023-02-18T09:07:52.664Z,34.86
2023-02-18T09:10:18.978Z,35.06
2023-02-18T09:12:45.291Z,35.26
2023-02-18T09:15:11.606Z,35.33
2023-02-18T09:17:37.921Z,35.41
2023-02-18T09:20:04.483Z,35.47
2023-02-18T09:22:32.610Z,35.26
2023-02-18T09:24:58.931Z,35.42
2023-02-18T09:27:25.238Z,35.69
2023-02-18T09:29:51.619Z,35.81
2023-02-18T09:32:32.512Z,35.75
2023-02-18T09:35:00.472Z,35.67
2023-02-18T09:37:26.793Z,35.54
2023-02-18T09:39:53.120Z,35.65
2023-02-18T09:42:19.459Z,35.75
2023-02-18T09:44:55.697Z,35.54
2023-02-18T09:47:27.136Z,35.52
2023-02-18T09:49:54.678Z,35.60
2023-02-18T09:52:23.746Z,35.57
2023-02-18T09:54:50.322Z,35.66
2023-02-18T09:57:39.900Z,35.61
2023-02-18T10:00:07.577Z,35.54
2023-02-18T10:02:33.897Z,35.29
2023-02-18T10:05:00.228Z,35.22
2023-02-18T10:07:30.541Z,35.12
2023-02-18T10:09:57.098Z,35.05
2023-02-18T10:12:24.554Z,35.17
2023-02-18T10:14:54.921Z,35.10
2023-02-18T10:17:21.647Z,35.17
2023-02-18T10:19:48.074Z,35.23
2023-02-18T10:22:15.146Z,35.44
2023-02-18T10:24:42.824Z,35.17
2023-02-18T10:27:09.233Z,35.38
2023-02-18T10:29:35.604Z,35.29
2023-02-18T10:32:16.086Z,35.30
2023-02-18T10:34:43.237Z,35.47
2023-02-18T10:37:23.783Z,35.51
2023-02-18T10:40:08.451Z,35.57
2023-02-18T10:42:45.274Z,35.52
2023-02-18T10:45:30.145Z,35.78
2023-02-18T10:48:04.489Z,35.79
2023-02-18T10:50:32.145Z,36.96
2023-02-18T10:53:02.334Z,36.54
2023-02-18T10:55:38.599Z,36.81
2023-02-18T10:58:06.576Z,36.71
2023-02-18T11:00:36.423Z,36.74
2023-02-18T11:03:24.598Z,36.98
2023-02-18T11:05:51.899Z,36.66
2023-02-18T11:08:19.415Z,36.07
2023-02-18T11:10:46.128Z,36.18
2023-02-18T11:13:13.346Z,36.21
2023-02-18T11:15:39.678Z,36.05
2023-02-18T11:18:24.779Z,36.03
2023-02-18T11:20:58.460Z,36.37
2023-02-18T11:23:25.657Z,36.71
2023-02-18T11:26:04.869Z,37.01
2023-02-18T11:28:33.549Z,37.21
2023-02-18T11:31:00.434Z,37.08
2023-02-18T11:33:38.062Z,37.32
2023-02-18T11:36:13.354Z,37.52
2023-02-18T11:39:07.347Z,37.40
2023-02-18T11:41:37.657Z,37.57
2023-02-18T11:44:04.968Z,37.50
2023-02-18T11:46:31.370Z,37.15
2023-02-18T11:48:57.793Z,37.07
2023-02-18T11:51:28.190Z,37.47
2023-02-18T11:54:13.384Z,37.56
2023-02-18T11:56:39.694Z,37.92
2023-02-18T11:59:07.045Z,37.60
2023-02-18T12:01:43.969Z,38.16
2023-02-18T12:04:14.410Z,37.74
2023-02-18T12:06:54.883Z,37.23
2023-02-18T12:09:27.644Z,37.20
2023-02-18T12:11:55.369Z,37.06
2023-02-18T12:14:22.156Z,36.93
2023-02-18T12:16:54.815Z,36.94
2023-02-18T12:19:41.169Z,37.65
2023-02-18T12:22:13.488Z,37.41
2023-02-18T12:24:42.888Z,37.64
2023-02-18T12:27:09.910Z,37.13
2023-02-18T12:30:06.112Z,37.34
2023-02-18T12:32:35.372Z,37.66
2023-02-18T12:35:04.406Z,37.47
2023-02-18T12:37:30.656Z,37.65
2023-02-18T12:40:15.066Z,37.24
2023-02-18T12:42:47.553Z,37.60
2023-02-18T12:45:34.995Z,37.52
2023-02-18T12:48:01.253Z,37.40
2023-02-18T12:50:46.173Z,37.41
2023-02-18T12:53:19.447Z,37.48
2023-02-18T12:55:45.756Z,37.47
2023-02-18T12:58:30.808Z,37.53
2023-02-18T13:01:02.952Z,37.55
2023-02-18T13:03:38.036Z,37.42
2023-02-18T13:06:24.301Z,37.84
2023-02-18T13:09:13.827Z,37.59
2023-02-18T13:11:40.062Z,37.80
2023-02-18T13:14:09.416Z,37.46
2023-02-18T13:16:35.982Z,37.18
2023-02-18T13:19:03.614Z,36.90
2023-02-18T13:21:30.047Z,37.11
2023-02-18T13:24:06.804Z,36.59
2023-02-18T13:26:33.486Z,36.57
2023-02-18T13:29:08.933Z,36.99
2023-02-18T13:31:55.538Z,36.87
2023-02-18T13:34:57.588Z,36.76
2023-02-18T13:37:31.226Z,37.07
2023-02-18T13:39:57.623Z,37.00
2023-02-18T13:42:25.007Z,37.04
2023-02-18T13:44:54.448Z,36.80
2023-02-18T13:47:39.529Z,37.06
2023-02-18T13:50:27.313Z,36.89
2023-02-18T13:52:59.923Z,36.85
2023-02-18T13:55:27.751Z,36.88
2023-02-18T13:57:54.877Z,37.04
2023-02-18T14:00:22.247Z,36.91
2023-02-18T14:02:59.141Z,36.90
2023-02-18T14:05:25.642Z,36.84
2023-02-18T14:07:52.556Z,36.73
2023-02-18T14:10:18.848Z,36.72
2023-02-18T14:12:57.889Z,36.80
2023-02-18T14:15:24.299Z,36.96
2023-02-18T14:18:10.896Z,37.00
2023-02-18T14:20:37.173Z,36.87
2023-02-18T14:23:18.795Z,36.66
2023-02-18T14:26:04.047Z,36.55
2023-02-18T14:28:33.290Z,36.41
2023-02-18T14:31:12.528Z,36.57
2023-02-18T14:33:42.669Z,36.62
2023-02-18T14:36:22.613Z,36.46
2023-02-18T14:39:02.909Z,36.39
2023-02-18T14:41:40.892Z,36.43
2023-02-18T14:44:19.404Z,36.71
2023-02-18T14:46:57.666Z,36.55
2023-02-18T14:49:23.898Z,36.58
2023-02-18T14:51:50.214Z,36.42
2023-02-18T14:54:18.260Z,36.52
2023-02-18T14:57:04.891Z,36.34
2023-02-18T14:59:32.275Z,36.30
2023-02-18T15:01:58.626Z,36.31
2023-02-18T15:04:25.216Z,36.39
2023-02-18T15:06:58.344Z,36.48
2023-02-18T15:09:24.959Z,36.41
2023-02-18T15:11:52.210Z,36.45
2023-02-18T15:14:20.074Z,36.48
2023-02-18T15:16:46.458Z,36.42
2023-02-18T15:19:13.678Z,36.63
2023-02-18T15:21:41.153Z,36.60
2023-02-18T15:24:13.631Z,36.56
2023-02-18T15:26:43.268Z,36.64
2023-02-18T15:29:14.747Z,36.46
2023-02-18T15:31:41.163Z,36.31
2023-02-18T15:34:26.196Z,36.43
2023-02-18T15:36:52.622Z,36.15
2023-02-18T15:39:18.937Z,36.05
2023-02-18T15:41:45.263Z,36.14
2023-02-18T15:44:22.175Z,36.16
2023-02-18T15:46:48.550Z,36.14
2023-02-18T15:49:15.567Z,36.10
2023-02-18T15:51:42.253Z,36.06
2023-02-18T15:54:12.162Z,36.02
2023-02-18T15:56:42.277Z,35.97
2023-02-18T15:59:09.031Z,36.09
2023-02-18T16:01:35.365Z,36.14
2023-02-18T16:04:01.704Z,35.91
2023-02-18T16:06:28.896Z,36.14
2023-02-18T16:09:18.373Z,35.97
2023-02-18T16:11:45.626Z,36.01
2023-02-18T16:14:30.824Z,36.14
2023-02-18T16:17:06.705Z,36.02
2023-02-18T16:19:34.006Z,36.14
2023-02-18T16:22:04.245Z,36.07
2023-02-18T16:24:32.931Z,36.07
2023-02-18T16:27:00.094Z,35.83
2023-02-18T16:29:27.248Z,36.04
2023-02-18T16:31:53.724Z,35.55
2023-02-18T16:34:20.608Z,35.80
2023-02-18T16:37:05.534Z,35.86
2023-02-18T16:39:33.118Z,35.50
2023-02-18T16:41:59.445Z,35.51
2023-02-18T16:44:25.758Z,35.52
2023-02-18T16:46:52.085Z,35.20
2023-02-18T16:49:18.531Z,35.14
2023-02-18T16:51:44.937Z,35.01
2023-02-18T16:54:14.303Z,35.49
2023-02-18T16:56:40.737Z,35.24
2023-02-18T16:59:07.103Z,35.31
2023-02-18T17:01:38.193Z,35.44
2023-02-18T17:04:05.580Z,35.47
2023-02-18T17:06:32.029Z,35.42
2023-02-18T17:08:58.684Z,35.53
2023-02-18T17:11:26.007Z,35.75
2023-02-18T17:13:53.040Z,35.72
2023-02-18T17:16:19.380Z,35.68
2023-02-18T17:18:45.804Z,35.67
2023-02-18T17:21:13.091Z,35.62
2023-02-18T17:23:39.395Z,35.66
2023-02-18T17:26:05.844Z,35.38
2023-02-18T17:28:32.154Z,35.70
2023-02-18T17:30:58.568Z,35.63
2023-02-18T17:33:25.206Z,35.77
2023-02-18T17:35:51.524Z,35.70
2023-02-18T17:38:18.138Z,35.81
2023-02-18T17:40:44.653Z,35.80
2023-02-18T17:43:12.387Z,35.62
2023-02-18T17:45:45.702Z,35.78
2023-02-18T17:48:12.017Z,35.98
2023-02-18T17:50:38.337Z,35.74
2023-02-18T17:53:04.824Z,36.12
2023-02-18T17:55:31.649Z,35.66
2023-02-18T17:57:58.283Z,36.22
2023-02-18T18:00:26.698Z,36.60
2023-02-18T18:02:53.091Z,36.83
2023-02-18T18:05:25.462Z,37.16
2023-02-18T18:07:51.899Z,37.07
2023-02-18T18:10:18.928Z,37.02
2023-02-18T18:12:45.250Z,37.30
2023-02-18T18:15:18.365Z,37.44
2023-02-18T18:17:44.878Z,37.45
2023-02-18T18:20:11.240Z,37.68
2023-02-18T18:22:37.559Z,37.79
2023-02-18T18:25:10.494Z,38.03
2023-02-18T18:27:36.825Z,38.25
2023-02-18T18:30:04.911Z,38.04
2023-02-18T18:32:31.278Z,38.05
2023-02-18T18:34:57.588Z,37.71
2023-02-18T18:37:23.921Z,37.71
2023-02-18T18:39:50.236Z,37.58
2023-02-18T18:42:16.581Z,37.68
2023-02-18T18:44:42.890Z,37.47
2023-02-18T18:47:09.232Z,37.64
2023-02-18T18:49:35.566Z,37.76
2023-02-18T18:52:01.914Z,37.55
2023-02-18T18:54:28.260Z,37.69
2023-02-18T18:56:54.971Z,37.60
2023-02-18T18:59:21.278Z,37.51
2023-02-18T19:01:47.608Z,36.81
2023-02-18T19:04:14.264Z,36.99
2023-02-18T19:06:40.622Z,37.43
2023-02-18T19:09:06.931Z,37.11
2023-02-18T19:11:33.248Z,37.25
2023-02-18T19:13:59.563Z,37.17
2023-02-18T19:16:27.878Z,37.41
2023-02-18T19:18:54.318Z,37.48
2023-02-18T19:21:20.643Z,37.25
2023-02-18T19:23:47.051Z,37.25
2023-02-18T19:26:13.367Z,37.62
2023-02-18T19:28:39.683Z,37.47
2023-02-18T19:31:09.759Z,37.48
2023-02-18T19:33:37.002Z,37.56
2023-02-18T19:36:07.650Z,37.59
2023-02-18T19:38:43.272Z,37.37
2023-02-18T19:41:12.160Z,37.60
2023-02-18T19:43:38.848Z,37.66
2023-02-18T19:46:11.569Z,37.66
2023-02-18T19:48:38.005Z,37.42
2023-02-18T19:51:04.469Z,37.66
2023-02-18T19:53:30.807Z,37.58
2023-02-18T19:56:02.352Z,37.79
2023-02-18T19:58:28.915Z,37.43
2023-02-18T20:00:55.261Z,37.89
2023-02-18T20:03:21.574Z,37.32
2023-02-18T20:05:47.881Z,37.20
2023-02-18T20:08:14.334Z,37.10
2023-02-18T20:10:40.642Z,36.91
2023-02-18T20:13:11.213Z,37.05
2023-02-18T20:15:40.665Z,36.92
2023-02-18T20:18:07.165Z,36.97
2023-02-18T20:20:33.474Z,37.06
2023-02-18T20:22:59.807Z,36.75
2023-02-18T20:25:27.654Z,37.17
2023-02-18T20:28:00.837Z,37.20
2023-02-18T20:30:27.738Z,37.15
2023-02-18T20:32:54.118Z,37.11
2023-02-18T20:35:20.445Z,37.32
2023-02-18T20:37:47.058Z,37.18
2023-02-18T20:40:13.418Z,37.07
2023-02-18T20:42:41.889Z,36.93
2023-02-18T20:45:08.756Z,37.06
2023-02-18T20:47:35.091Z,36.82
2023-02-18T20:50:01.410Z,36.93
2023-02-18T20:52:27.953Z,37.07
2023-02-18T20:54:54.654Z,36.88
2023-02-18T20:57:21.236Z,36.82
2023-02-18T20:59:47.552Z,36.80
2023-02-18T21:02:13.976Z,36.87
2023-02-18T21:04:40.296Z,36.61
2023-02-18T21:07:06.853Z,37.15
2023-02-18T21:09:33.166Z,37.07
2023-02-18T21:11:59.490Z,36.94
2023-02-18T21:14:25.912Z,36.88
2023-02-18T21:16:52.255Z,36.96
2023-02-18T21:19:27.707Z,36.96
2023-02-18T21:21:54.027Z,37.00
2023-02-18T21:24:20.383Z,36.97
2023-02-18T21:26:46.715Z,37.12
2023-02-18T21:29:13.049Z,37.15
2023-02-18T21:31:40.160Z,37.28
2023-02-18T21:34:06.919Z,37.06
2023-02-18T21:36:33.260Z,37.07
2023-02-18T21:39:00.715Z,37.44
2023-02-18T21:41:27.204Z,37.21
2023-02-18T21:43:53.626Z,37.27
2023-02-18T21:46:23.586Z,37.08
2023-02-18T21:49:02.113Z,37.17
2023-02-18T21:51:47.700Z,37.24
2023-02-18T21:54:20.823Z,37.38
2023-02-18T21:56:47.188Z,37.54
2023-02-18T21:59:13.534Z,37.54
2023-02-18T22:01:41.079Z,37.51
2023-02-18T22:04:07.454Z,37.42
2023-02-18T22:06:33.779Z,37.58
2023-02-18T22:09:01.029Z,37.77
2023-02-18T22:11:27.674Z,37.62
2023-02-18T22:13:54.007Z,37.95
2023-02-18T22:16:20.393Z,37.91
2023-02-18T22:18:46.737Z,38.11
2023-02-18T22:21:13.208Z,38.15
2023-02-18T22:23:39.636Z,37.99
2023-02-18T22:26:06.393Z,37.84
2023-02-18T22:28:32.916Z,38.27
2023-02-18T22:30:59.303Z,38.12
2023-02-18T22:33:26.095Z,37.96
2023-02-18T22:35:52.445Z,37.97
2023-02-18T22:38:18.858Z,37.96
2023-02-18T22:40:45.204Z,37.95
2023-02-18T22:43:11.564Z,37.61
2023-02-18T22:45:37.941Z,37.55
2023-02-18T22:48:04.355Z,37.38
2023-02-18T22:50:30.702Z,37.20
2023-02-18T22:52:57.318Z,36.89
2023-02-18T22:55:23.622Z,36.50
2023-02-18T22:57:49.943Z,36.68
2023-02-18T23:00:16.281Z,36.31
2023-02-18T23:02:42.606Z,36.05
2023-02-18T23:05:08.986Z,36.19
2023-02-18T23:07:35.789Z,36.21
2023-02-18T23:10:02.114Z,35.98
2023-02-18T23:12:28.647Z,36.09
2023-02-18T23:14:54.951Z,36.15
2023-02-18T23:17:21.315Z,36.22
2023-02-18T23:19:47.553Z,36.13
2023-02-18T23:22:14.670Z,36.09
2023-02-18T23:24:41.569Z,36.23
2023-02-18T23:27:08.668Z,36.16
2023-02-18T23:29:34.988Z,36.25
2023-02-18T23:32:01.461Z,36.27
2023-02-18T23:34:28.564Z,36.06
2023-02-18T23:36:54.985Z,36.13
2023-02-18T23:39:21.600Z,36.39
2023-02-18T23:41:47.934Z,36.32
2023-02-18T23:44:15.199Z,36.51
2023-02-18T23:46:41.617Z,36.32
2023-02-18T23:49:08.045Z,36.55
2023-02-18T23:51:34.371Z,36.66
2023-02-18T23:54:01.919Z,36.49
2023-02-18T23:56:28.422Z,36.66
2023-02-18T23:58:57.244Z,36.69
